This is the latest recevied weather packets stored in our database for station/object JP3QZN-13. If no packets are shown the sender has not sent any weather packets the latest 10 day(s).
| Time | Temp. | Humidity | Pressure | Rain* | Wind** | Luminosity | Snow |
|---|---|---|---|---|---|---|---|
| 1788161412 | 93° F | 62% | 758.2 mmHg | 0 in | - | - | - |
| 1788159611 | 95° F | 60% | 757.9 mmHg | 0 in | - | - | - |
| 1788157809 | 97° F | 56% | 757.6 mmHg | 0 in | - | - | - |
| 1788154208 | 101° F | 50% | 757.1 mmHg | 0 in | - | - | - |
| 1788152428 | 102° F | 51% | 756.8 mmHg | 0 in | - | - | - |
| 1788150627 | 102° F | 50% | 756.1 mmHg | 0 in | - | - | - |
| 1788148826 | 105° F | 46% | 755.2 mmHg | 0 in | - | - | - |
| 1788147026 | 106° F | 43% | 754.7 mmHg | 0 in | - | - | - |
| 1788145226 | 106° F | 43% | 754.9 mmHg | 0 in | - | - | - |
| 1788143425 | 106° F | 43% | 755 mmHg | 0 in | - | - | - |
| 1788141624 | 106° F | 45% | 755.1 mmHg | 0 in | - | - | - |
| 1788139822 | 105° F | 44% | 755.2 mmHg | 0 in | - | - | - |
| 1788138022 | 105° F | 44% | 755.2 mmHg | 0 in | - | - | - |
| 1788136231 | 103° F | 45% | 755.5 mmHg | 0 in | - | - | - |
| 1788134430 | 100° F | 49% | 755.7 mmHg | 0 in | - | - | - |
| 1788132630 | 96° F | 53% | 755.8 mmHg | 0 in | - | - | - |
| 1788129029 | 89° F | 65% | 756.1 mmHg | 0 in | - | - | - |
| 1788127228 | 85° F | 70% | 755.9 mmHg | 0 in | - | - | - |
| 1788125426 | 84° F | 71% | 755.8 mmHg | 0 in | - | - | - |
| 1788123624 | 83° F | 72% | 755.5 mmHg | 0 in | - | - | - |
| 1788121813 | 83° F | 72% | 755.2 mmHg | 0 in | - | - | - |
| 1788120012 | 83° F | 72% | 755 mmHg | 0 in | - | - | - |
| 1788116411 | 84° F | 70% | 754.9 mmHg | 0 in | - | - | - |
| 1788114630 | 84° F | 69% | 754.9 mmHg | 0 in | - | - | - |
| 1788112830 | 85° F | 68% | 754.7 mmHg | 0 in | - | - | - |
* Rain latest hour (hover to see other rain measurements)
** Current wind speed in m/s (hover to see current wind gust speed)